sensor_id;sensor_type;location;lat;lon;timestamp;temperature;humidity
65404;DHT22;52014;52.088;5.096;2022-10-16T00:01:29;13.00;99.90
65404;DHT22;52014;52.088;5.096;2022-10-16T00:03:55;13.00;99.90
65404;DHT22;52014;52.088;5.096;2022-10-16T00:06:22;13.00;99.90
65404;DHT22;52014;52.088;5.096;2022-10-16T00:08:48;13.00;99.90
65404;DHT22;52014;52.088;5.096;2022-10-16T00:11:17;12.90;99.90
65404;DHT22;52014;52.088;5.096;2022-10-16T00:13:44;12.90;99.90
65404;DHT22;52014;52.088;5.096;2022-10-16T00:16:10;12.90;99.90
65404;DHT22;52014;52.088;5.096;2022-10-16T00:18:37;12.90;99.90
65404;DHT22;52014;52.088;5.096;2022-10-16T00:21:04;12.90;99.90
65404;DHT22;52014;52.088;5.096;2022-10-16T00:23:30;13.00;99.90
65404;DHT22;52014;52.088;5.096;2022-10-16T00:25:56;13.00;99.90
65404;DHT22;52014;52.088;5.096;2022-10-16T00:28:22;13.00;99.90
65404;DHT22;52014;52.088;5.096;2022-10-16T00:30:48;13.00;99.90
65404;DHT22;52014;52.088;5.096;2022-10-16T00:33:13;13.00;99.90
65404;DHT22;52014;52.088;5.096;2022-10-16T00:35:38;13.00;99.90
65404;DHT22;52014;52.088;5.096;2022-10-16T00:38:04;13.00;99.90
65404;DHT22;52014;52.088;5.096;2022-10-16T00:40:29;13.00;99.90
65404;DHT22;52014;52.088;5.096;2022-10-16T00:42:55;13.00;99.90
65404;DHT22;52014;52.088;5.096;2022-10-16T00:45:20;13.00;99.90
65404;DHT22;52014;52.088;5.096;2022-10-16T00:47:46;13.00;99.90
65404;DHT22;52014;52.088;5.096;2022-10-16T00:50:26;13.10;99.90
65404;DHT22;52014;52.088;5.096;2022-10-16T00:52:52;13.10;99.90
65404;DHT22;52014;52.088;5.096;2022-10-16T00:55:18;13.20;99.90
65404;DHT22;52014;52.088;5.096;2022-10-16T00:57:43;13.30;99.90
65404;DHT22;52014;52.088;5.096;2022-10-16T01:00:10;13.20;99.90
65404;DHT22;52014;52.088;5.096;2022-10-16T01:02:36;13.30;99.90
65404;DHT22;52014;52.088;5.096;2022-10-16T01:05:02;13.30;99.90
65404;DHT22;52014;52.088;5.096;2022-10-16T01:12:41;13.30;99.90
65404;DHT22;52014;52.088;5.096;2022-10-16T01:17:35;13.20;99.90
65404;DHT22;52014;52.088;5.096;2022-10-16T01:25:32;13.30;99.90
65404;DHT22;52014;52.088;5.096;2022-10-16T01:28:02;13.20;99.90
65404;DHT22;52014;52.088;5.096;2022-10-16T01:30:30;13.20;99.90
65404;DHT22;52014;52.088;5.096;2022-10-16T01:32:57;13.20;99.90
65404;DHT22;52014;52.088;5.096;2022-10-16T01:35:29;13.30;99.90
65404;DHT22;52014;52.088;5.096;2022-10-16T01:40:26;13.30;99.90
65404;DHT22;52014;52.088;5.096;2022-10-16T01:42:54;13.20;99.90
65404;DHT22;52014;52.088;5.096;2022-10-16T01:45:21;13.30;99.90
65404;DHT22;52014;52.088;5.096;2022-10-16T01:47:47;13.20;99.90
65404;DHT22;52014;52.088;5.096;2022-10-16T01:50:14;13.20;99.90
65404;DHT22;52014;52.088;5.096;2022-10-16T01:52:41;13.10;99.90
65404;DHT22;52014;52.088;5.096;2022-10-16T01:55:08;13.20;99.90
65404;DHT22;52014;52.088;5.096;2022-10-16T01:57:36;13.20;99.90
65404;DHT22;52014;52.088;5.096;2022-10-16T02:00:05;13.10;99.90
65404;DHT22;52014;52.088;5.096;2022-10-16T02:02:31;13.20;99.90
65404;DHT22;52014;52.088;5.096;2022-10-16T02:05:02;13.10;99.90
65404;DHT22;52014;52.088;5.096;2022-10-16T02:07:29;13.10;99.90
65404;DHT22;52014;52.088;5.096;2022-10-16T02:09:55;13.10;99.90
65404;DHT22;52014;52.088;5.096;2022-10-16T02:12:27;13.10;99.90
65404;DHT22;52014;52.088;5.096;2022-10-16T02:14:53;13.10;99.90
65404;DHT22;52014;52.088;5.096;2022-10-16T02:17:19;13.00;99.90
65404;DHT22;52014;52.088;5.096;2022-10-16T02:19:45;13.00;99.90
65404;DHT22;52014;52.088;5.096;2022-10-16T02:22:15;12.90;99.90
65404;DHT22;52014;52.088;5.096;2022-10-16T02:27:26;12.90;99.90
65404;DHT22;52014;52.088;5.096;2022-10-16T02:29:55;12.80;99.90
65404;DHT22;52014;52.088;5.096;2022-10-16T02:32:24;12.80;99.90
65404;DHT22;52014;52.088;5.096;2022-10-16T02:34:53;12.80;99.90
65404;DHT22;52014;52.088;5.096;2022-10-16T02:37:19;12.90;99.90
65404;DHT22;52014;52.088;5.096;2022-10-16T02:39:45;12.90;99.90
65404;DHT22;52014;52.088;5.096;2022-10-16T02:42:11;12.90;99.90
65404;DHT22;52014;52.088;5.096;2022-10-16T02:44:37;12.90;99.90
65404;DHT22;52014;52.088;5.096;2022-10-16T02:47:02;12.90;99.90
65404;DHT22;52014;52.088;5.096;2022-10-16T02:49:27;12.90;99.90
65404;DHT22;52014;52.088;5.096;2022-10-16T02:51:53;12.90;99.90
65404;DHT22;52014;52.088;5.096;2022-10-16T02:54:18;12.90;99.90
65404;DHT22;52014;52.088;5.096;2022-10-16T02:56:44;13.00;99.90
65404;DHT22;52014;52.088;5.096;2022-10-16T02:59:09;13.00;99.90
65404;DHT22;52014;52.088;5.096;2022-10-16T03:01:35;13.00;99.90
65404;DHT22;52014;52.088;5.096;2022-10-16T03:04:00;13.00;99.90
65404;DHT22;52014;52.088;5.096;2022-10-16T03:06:26;13.00;99.90
65404;DHT22;52014;52.088;5.096;2022-10-16T03:08:51;12.90;99.90
65404;DHT22;52014;52.088;5.096;2022-10-16T03:11:17;12.90;99.90
65404;DHT22;52014;52.088;5.096;2022-10-16T03:13:42;12.90;99.90
65404;DHT22;52014;52.088;5.096;2022-10-16T03:16:07;12.90;99.90
65404;DHT22;52014;52.088;5.096;2022-10-16T03:18:33;12.90;99.90
65404;DHT22;52014;52.088;5.096;2022-10-16T03:20:59;12.90;99.90
65404;DHT22;52014;52.088;5.096;2022-10-16T03:23:24;12.90;99.90
65404;DHT22;52014;52.088;5.096;2022-10-16T03:25:50;12.80;99.90
65404;DHT22;52014;52.088;5.096;2022-10-16T03:28:15;12.80;99.90
65404;DHT22;52014;52.088;5.096;2022-10-16T03:30:40;12.80;99.90
65404;DHT22;52014;52.088;5.096;2022-10-16T03:33:06;12.70;99.90
65404;DHT22;52014;52.088;5.096;2022-10-16T03:35:31;12.70;99.90
65404;DHT22;52014;52.088;5.096;2022-10-16T03:37:57;12.70;99.90
65404;DHT22;52014;52.088;5.096;2022-10-16T03:40:22;12.70;99.90
65404;DHT22;52014;52.088;5.096;2022-10-16T03:42:48;12.70;99.90
65404;DHT22;52014;52.088;5.096;2022-10-16T03:45:13;12.70;99.90
65404;DHT22;52014;52.088;5.096;2022-10-16T03:47:39;12.60;99.90
65404;DHT22;52014;52.088;5.096;2022-10-16T03:50:05;12.60;99.90
65404;DHT22;52014;52.088;5.096;2022-10-16T03:52:30;12.60;99.90
65404;DHT22;52014;52.088;5.096;2022-10-16T03:54:57;12.70;99.90
65404;DHT22;52014;52.088;5.096;2022-10-16T03:57:22;12.70;99.90
65404;DHT22;52014;52.088;5.096;2022-10-16T03:59:48;12.70;99.90
65404;DHT22;52014;52.088;5.096;2022-10-16T04:02:13;12.70;99.90
65404;DHT22;52014;52.088;5.096;2022-10-16T04:04:39;12.70;99.90
65404;DHT22;52014;52.088;5.096;2022-10-16T04:07:04;12.70;99.90
65404;DHT22;52014;52.088;5.096;2022-10-16T04:09:30;12.80;99.90
65404;DHT22;52014;52.088;5.096;2022-10-16T04:11:55;12.70;99.90
65404;DHT22;52014;52.088;5.096;2022-10-16T04:14:21;12.70;99.90
65404;DHT22;52014;52.088;5.096;2022-10-16T04:16:46;12.70;99.90
65404;DHT22;52014;52.088;5.096;2022-10-16T04:19:11;12.70;99.90
65404;DHT22;52014;52.088;5.096;2022-10-16T04:21:37;12.80;99.90
65404;DHT22;52014;52.088;5.096;2022-10-16T04:24:02;12.80;99.90
65404;DHT22;52014;52.088;5.096;2022-10-16T04:26:28;12.80;99.90
65404;DHT22;52014;52.088;5.096;2022-10-16T04:28:54;12.80;99.90
65404;DHT22;52014;52.088;5.096;2022-10-16T04:31:20;12.80;99.90
65404;DHT22;52014;52.088;5.096;2022-10-16T04:33:45;12.70;99.90
65404;DHT22;52014;52.088;5.096;2022-10-16T04:36:11;12.70;99.90
65404;DHT22;52014;52.088;5.096;2022-10-16T04:38:36;12.70;99.90
65404;DHT22;52014;52.088;5.096;2022-10-16T04:41:03;12.70;99.90
65404;DHT22;52014;52.088;5.096;2022-10-16T04:43:28;12.60;99.90
65404;DHT22;52014;52.088;5.096;2022-10-16T04:45:54;12.60;99.90
65404;DHT22;52014;52.088;5.096;2022-10-16T04:48:19;12.60;99.90
65404;DHT22;52014;52.088;5.096;2022-10-16T04:50:45;12.60;99.90
65404;DHT22;52014;52.088;5.096;2022-10-16T04:53:10;12.50;99.90
65404;DHT22;52014;52.088;5.096;2022-10-16T04:55:36;12.50;99.90
65404;DHT22;52014;52.088;5.096;2022-10-16T04:58:02;12.50;99.90
65404;DHT22;52014;52.088;5.096;2022-10-16T05:00:28;12.50;99.90
65404;DHT22;52014;52.088;5.096;2022-10-16T05:02:53;12.60;99.90
65404;DHT22;52014;52.088;5.096;2022-10-16T05:05:19;12.50;99.90
65404;DHT22;52014;52.088;5.096;2022-10-16T05:07:48;12.50;99.90
65404;DHT22;52014;52.088;5.096;2022-10-16T05:10:14;12.50;99.90
65404;DHT22;52014;52.088;5.096;2022-10-16T05:12:40;12.50;99.90
65404;DHT22;52014;52.088;5.096;2022-10-16T05:15:05;12.60;99.90
65404;DHT22;52014;52.088;5.096;2022-10-16T05:17:31;12.60;99.90
65404;DHT22;52014;52.088;5.096;2022-10-16T05:19:56;12.60;99.90
65404;DHT22;52014;52.088;5.096;2022-10-16T05:22:22;12.60;99.90
65404;DHT22;52014;52.088;5.096;2022-10-16T05:24:47;12.60;99.90
65404;DHT22;52014;52.088;5.096;2022-10-16T05:27:13;12.60;99.90
65404;DHT22;52014;52.088;5.096;2022-10-16T05:29:44;12.60;99.90
65404;DHT22;52014;52.088;5.096;2022-10-16T05:32:10;12.70;99.90
65404;DHT22;52014;52.088;5.096;2022-10-16T05:34:36;12.60;99.90
65404;DHT22;52014;52.088;5.096;2022-10-16T05:37:02;12.70;99.90
65404;DHT22;52014;52.088;5.096;2022-10-16T05:39:27;12.60;99.90
65404;DHT22;52014;52.088;5.096;2022-10-16T05:41:53;12.70;99.90
65404;DHT22;52014;52.088;5.096;2022-10-16T05:44:18;12.70;99.90
65404;DHT22;52014;52.088;5.096;2022-10-16T05:46:43;12.70;99.90
65404;DHT22;52014;52.088;5.096;2022-10-16T05:49:11;12.70;99.90
65404;DHT22;52014;52.088;5.096;2022-10-16T05:51:36;12.70;99.90
65404;DHT22;52014;52.088;5.096;2022-10-16T05:54:01;12.70;99.90
65404;DHT22;52014;52.088;5.096;2022-10-16T05:56:27;12.70;99.90
65404;DHT22;52014;52.088;5.096;2022-10-16T05:58:52;12.70;99.90
65404;DHT22;52014;52.088;5.096;2022-10-16T06:01:18;12.70;99.90
65404;DHT22;52014;52.088;5.096;2022-10-16T06:03:44;12.70;99.90
65404;DHT22;52014;52.088;5.096;2022-10-16T06:06:16;12.70;99.90
65404;DHT22;52014;52.088;5.096;2022-10-16T06:08:42;12.70;99.90
65404;DHT22;52014;52.088;5.096;2022-10-16T06:11:10;12.70;99.90
65404;DHT22;52014;52.088;5.096;2022-10-16T06:13:36;12.80;99.90
65404;DHT22;52014;52.088;5.096;2022-10-16T06:16:02;12.80;99.90
65404;DHT22;52014;52.088;5.096;2022-10-16T06:18:28;12.70;99.90
65404;DHT22;52014;52.088;5.096;2022-10-16T06:20:54;12.70;99.90
65404;DHT22;52014;52.088;5.096;2022-10-16T06:23:19;12.80;99.90
65404;DHT22;52014;52.088;5.096;2022-10-16T06:25:45;12.70;99.90
65404;DHT22;52014;52.088;5.096;2022-10-16T06:28:10;12.70;99.90
65404;DHT22;52014;52.088;5.096;2022-10-16T06:30:36;12.70;99.90
65404;DHT22;52014;52.088;5.096;2022-10-16T06:33:01;12.70;99.90
65404;DHT22;52014;52.088;5.096;2022-10-16T06:35:27;12.70;99.90
65404;DHT22;52014;52.088;5.096;2022-10-16T06:37:54;12.70;99.90
65404;DHT22;52014;52.088;5.096;2022-10-16T06:40:19;12.70;99.90
65404;DHT22;52014;52.088;5.096;2022-10-16T06:42:45;12.70;99.90
65404;DHT22;52014;52.088;5.096;2022-10-16T06:45:10;12.70;99.90
65404;DHT22;52014;52.088;5.096;2022-10-16T06:47:36;12.80;99.90
65404;DHT22;52014;52.088;5.096;2022-10-16T06:50:01;12.80;99.90
65404;DHT22;52014;52.088;5.096;2022-10-16T06:52:28;12.80;99.90
65404;DHT22;52014;52.088;5.096;2022-10-16T06:54:54;12.80;99.90
65404;DHT22;52014;52.088;5.096;2022-10-16T06:57:19;12.90;99.90
65404;DHT22;52014;52.088;5.096;2022-10-16T06:59:45;12.80;99.90
65404;DHT22;52014;52.088;5.096;2022-10-16T07:02:10;12.90;99.90
65404;DHT22;52014;52.088;5.096;2022-10-16T07:04:36;12.90;99.90
65404;DHT22;52014;52.088;5.096;2022-10-16T07:07:01;12.90;99.90
65404;DHT22;52014;52.088;5.096;2022-10-16T07:09:27;13.00;99.90
65404;DHT22;52014;52.088;5.096;2022-10-16T07:11:52;13.00;99.90
65404;DHT22;52014;52.088;5.096;2022-10-16T07:14:19;13.00;99.90
65404;DHT22;52014;52.088;5.096;2022-10-16T07:16:45;13.00;99.90
65404;DHT22;52014;52.088;5.096;2022-10-16T07:19:10;13.00;99.90
65404;DHT22;52014;52.088;5.096;2022-10-16T07:21:37;13.10;99.90
65404;DHT22;52014;52.088;5.096;2022-10-16T07:24:06;13.10;99.90
65404;DHT22;52014;52.088;5.096;2022-10-16T07:26:33;13.10;99.90
65404;DHT22;52014;52.088;5.096;2022-10-16T07:28:59;13.10;99.90
65404;DHT22;52014;52.088;5.096;2022-10-16T07:31:25;13.20;99.90
65404;DHT22;52014;52.088;5.096;2022-10-16T07:33:51;13.20;99.90
65404;DHT22;52014;52.088;5.096;2022-10-16T07:36:17;13.20;99.90
65404;DHT22;52014;52.088;5.096;2022-10-16T07:38:43;13.20;99.90
65404;DHT22;52014;52.088;5.096;2022-10-16T07:41:10;13.10;99.90
65404;DHT22;52014;52.088;5.096;2022-10-16T07:43:35;13.10;99.90
65404;DHT22;52014;52.088;5.096;2022-10-16T07:46:01;13.00;99.90
65404;DHT22;52014;52.088;5.096;2022-10-16T07:48:27;13.10;99.90
65404;DHT22;52014;52.088;5.096;2022-10-16T07:50:56;13.10;99.90
65404;DHT22;52014;52.088;5.096;2022-10-16T07:53:22;13.10;99.90
65404;DHT22;52014;52.088;5.096;2022-10-16T07:55:47;13.20;99.90
65404;DHT22;52014;52.088;5.096;2022-10-16T07:58:13;13.20;99.90
65404;DHT22;52014;52.088;5.096;2022-10-16T08:00:38;13.50;99.90
65404;DHT22;52014;52.088;5.096;2022-10-16T08:03:04;14.20;99.90
65404;DHT22;52014;52.088;5.096;2022-10-16T08:05:30;14.20;99.90
65404;DHT22;52014;52.088;5.096;2022-10-16T08:07:56;14.90;99.90
65404;DHT22;52014;52.088;5.096;2022-10-16T08:10:22;15.40;99.90
65404;DHT22;52014;52.088;5.096;2022-10-16T08:12:48;15.20;99.90
65404;DHT22;52014;52.088;5.096;2022-10-16T08:15:13;14.80;99.90
65404;DHT22;52014;52.088;5.096;2022-10-16T08:17:39;15.80;99.90
65404;DHT22;52014;52.088;5.096;2022-10-16T08:20:04;16.20;99.90
65404;DHT22;52014;52.088;5.096;2022-10-16T08:22:33;15.20;99.90
65404;DHT22;52014;52.088;5.096;2022-10-16T08:24:58;14.50;99.90
65404;DHT22;52014;52.088;5.096;2022-10-16T08:27:23;14.70;99.90
65404;DHT22;52014;52.088;5.096;2022-10-16T08:29:49;14.80;99.90
65404;DHT22;52014;52.088;5.096;2022-10-16T08:32:14;14.60;99.90
65404;DHT22;52014;52.088;5.096;2022-10-16T08:34:40;14.80;99.90
65404;DHT22;52014;52.088;5.096;2022-10-16T08:37:05;15.10;99.90
65404;DHT22;52014;52.088;5.096;2022-10-16T08:39:33;15.10;99.90
65404;DHT22;52014;52.088;5.096;2022-10-16T08:49:42;15.10;99.90
65404;DHT22;52014;52.088;5.096;2022-10-16T08:52:10;15.30;99.90
65404;DHT22;52014;52.088;5.096;2022-10-16T08:54:37;15.30;99.90
65404;DHT22;52014;52.088;5.096;2022-10-16T08:57:09;14.90;99.90
65404;DHT22;52014;52.088;5.096;2022-10-16T08:59:35;15.10;99.90
65404;DHT22;52014;52.088;5.096;2022-10-16T09:02:00;15.50;99.90
65404;DHT22;52014;52.088;5.096;2022-10-16T09:14:38;14.80;99.90
65404;DHT22;52014;52.088;5.096;2022-10-16T09:20:13;14.80;99.90
65404;DHT22;52014;52.088;5.096;2022-10-16T09:22:35;14.90;99.90
65404;DHT22;52014;52.088;5.096;2022-10-16T09:25:00;15.10;99.90
65404;DHT22;52014;52.088;5.096;2022-10-16T09:27:35;15.10;99.90
65404;DHT22;52014;52.088;5.096;2022-10-16T09:30:01;14.90;99.90
65404;DHT22;52014;52.088;5.096;2022-10-16T09:32:26;15.00;99.90
65404;DHT22;52014;52.088;5.096;2022-10-16T09:34:53;15.40;99.90
65404;DHT22;52014;52.088;5.096;2022-10-16T09:37:21;15.40;99.90
65404;DHT22;52014;52.088;5.096;2022-10-16T09:39:56;15.50;99.90
65404;DHT22;52014;52.088;5.096;2022-10-16T09:42:31;15.70;99.90
65404;DHT22;52014;52.088;5.096;2022-10-16T09:44:58;15.80;99.90
65404;DHT22;52014;52.088;5.096;2022-10-16T09:47:24;15.70;99.90
65404;DHT22;52014;52.088;5.096;2022-10-16T09:49:54;15.70;99.90
65404;DHT22;52014;52.088;5.096;2022-10-16T09:52:20;15.70;99.90
65404;DHT22;52014;52.088;5.096;2022-10-16T09:54:52;15.90;99.90
65404;DHT22;52014;52.088;5.096;2022-10-16T09:57:18;15.90;99.90
65404;DHT22;52014;52.088;5.096;2022-10-16T09:59:50;15.90;99.90
65404;DHT22;52014;52.088;5.096;2022-10-16T10:02:17;16.00;99.90
65404;DHT22;52014;52.088;5.096;2022-10-16T10:04:50;16.10;99.90
65404;DHT22;52014;52.088;5.096;2022-10-16T10:07:17;15.90;99.90
65404;DHT22;52014;52.088;5.096;2022-10-16T10:09:44;15.80;99.90
65404;DHT22;52014;52.088;5.096;2022-10-16T10:12:19;15.60;99.90
65404;DHT22;52014;52.088;5.096;2022-10-16T10:14:52;15.50;99.90
65404;DHT22;52014;52.088;5.096;2022-10-16T10:17:19;15.60;99.90
65404;DHT22;52014;52.088;5.096;2022-10-16T10:19:46;15.80;99.90
65404;DHT22;52014;52.088;5.096;2022-10-16T10:22:25;15.90;99.90
65404;DHT22;52014;52.088;5.096;2022-10-16T10:24:54;16.10;99.90
65404;DHT22;52014;52.088;5.096;2022-10-16T10:27:20;16.40;99.90
65404;DHT22;52014;52.088;5.096;2022-10-16T10:29:49;16.40;99.90
65404;DHT22;52014;52.088;5.096;2022-10-16T10:32:30;16.30;99.90
65404;DHT22;52014;52.088;5.096;2022-10-16T10:40:28;16.20;99.90
65404;DHT22;52014;52.088;5.096;2022-10-16T10:45:16;16.10;99.90
65404;DHT22;52014;52.088;5.096;2022-10-16T10:47:47;16.10;99.90
65404;DHT22;52014;52.088;5.096;2022-10-16T10:55:39;15.80;99.90
65404;DHT22;52014;52.088;5.096;2022-10-16T10:58:10;15.60;99.90
65404;DHT22;52014;52.088;5.096;2022-10-16T11:05:45;15.70;99.90
65404;DHT22;52014;52.088;5.096;2022-10-16T11:15:59;16.10;99.90
65404;DHT22;52014;52.088;5.096;2022-10-16T11:21:26;16.00;99.90
65404;DHT22;52014;52.088;5.096;2022-10-16T11:23:55;15.90;99.90
65404;DHT22;52014;52.088;5.096;2022-10-16T11:26:26;15.80;99.90
65404;DHT22;52014;52.088;5.096;2022-10-16T11:28:54;15.80;99.90
65404;DHT22;52014;52.088;5.096;2022-10-16T11:31:25;15.80;99.90
65404;DHT22;52014;52.088;5.096;2022-10-16T11:34:05;15.90;99.90
65404;DHT22;52014;52.088;5.096;2022-10-16T11:39:16;15.90;99.90
65404;DHT22;52014;52.088;5.096;2022-10-16T11:41:45;15.90;99.90
65404;DHT22;52014;52.088;5.096;2022-10-16T11:44:32;15.90;99.90
65404;DHT22;52014;52.088;5.096;2022-10-16T11:49:33;15.70;99.90
65404;DHT22;52014;52.088;5.096;2022-10-16T11:52:00;15.60;99.90
65404;DHT22;52014;52.088;5.096;2022-10-16T11:54:32;15.60;99.90
65404;DHT22;52014;52.088;5.096;2022-10-16T11:56:59;15.60;99.90
65404;DHT22;52014;52.088;5.096;2022-10-16T11:59:38;15.70;99.90
65404;DHT22;52014;52.088;5.096;2022-10-16T12:02:26;15.90;99.90
65404;DHT22;52014;52.088;5.096;2022-10-16T12:07:27;16.00;99.90
65404;DHT22;52014;52.088;5.096;2022-10-16T12:09:57;16.10;99.90
65404;DHT22;52014;52.088;5.096;2022-10-16T12:12:26;16.20;99.90
65404;DHT22;52014;52.088;5.096;2022-10-16T12:15:02;16.30;99.90
65404;DHT22;52014;52.088;5.096;2022-10-16T12:17:38;16.20;99.90
65404;DHT22;52014;52.088;5.096;2022-10-16T12:22:41;16.40;99.90
65404;DHT22;52014;52.088;5.096;2022-10-16T12:30:29;16.40;99.90
65404;DHT22;52014;52.088;5.096;2022-10-16T12:32:55;16.30;99.90
65404;DHT22;52014;52.088;5.096;2022-10-16T12:35:22;16.40;99.90
65404;DHT22;52014;52.088;5.096;2022-10-16T12:37:49;16.40;99.90
65404;DHT22;52014;52.088;5.096;2022-10-16T12:40:16;16.30;99.90
65404;DHT22;52014;52.088;5.096;2022-10-16T12:42:49;16.20;99.90
65404;DHT22;52014;52.088;5.096;2022-10-16T12:45:24;16.20;99.90
65404;DHT22;52014;52.088;5.096;2022-10-16T12:47:51;16.20;99.90
65404;DHT22;52014;52.088;5.096;2022-10-16T12:50:34;16.20;99.90
65404;DHT22;52014;52.088;5.096;2022-10-16T12:53:01;16.20;99.90
65404;DHT22;52014;52.088;5.096;2022-10-16T12:55:26;16.40;99.90
65404;DHT22;52014;52.088;5.096;2022-10-16T13:00:47;16.60;99.90
65404;DHT22;52014;52.088;5.096;2022-10-16T13:03:31;16.50;99.90
65404;DHT22;52014;52.088;5.096;2022-10-16T13:06:11;16.40;99.90
65404;DHT22;52014;52.088;5.096;2022-10-16T13:14:52;16.40;99.90
65404;DHT22;52014;52.088;5.096;2022-10-16T13:19:15;16.40;99.90
65404;DHT22;52014;52.088;5.096;2022-10-16T13:27:03;16.50;99.90
65404;DHT22;52014;52.088;5.096;2022-10-16T13:29:31;16.60;99.90
65404;DHT22;52014;52.088;5.096;2022-10-16T13:31:57;16.70;99.90
65404;DHT22;52014;52.088;5.096;2022-10-16T13:34:23;16.70;99.90
65404;DHT22;52014;52.088;5.096;2022-10-16T13:36:51;16.70;99.90
65404;DHT22;52014;52.088;5.096;2022-10-16T13:39:27;16.70;99.90
65404;DHT22;52014;52.088;5.096;2022-10-16T13:42:11;16.70;99.90
65404;DHT22;52014;52.088;5.096;2022-10-16T13:44:39;16.60;99.90
65404;DHT22;52014;52.088;5.096;2022-10-16T13:47:10;16.60;99.90
65404;DHT22;52014;52.088;5.096;2022-10-16T13:49:39;16.60;99.90
65404;DHT22;52014;52.088;5.096;2022-10-16T13:52:05;16.50;99.90
65404;DHT22;52014;52.088;5.096;2022-10-16T13:54:31;16.50;99.90
65404;DHT22;52014;52.088;5.096;2022-10-16T13:57:04;16.50;99.90
65404;DHT22;52014;52.088;5.096;2022-10-16T13:59:33;16.50;99.90
65404;DHT22;52014;52.088;5.096;2022-10-16T14:01:59;16.50;99.90
65404;DHT22;52014;52.088;5.096;2022-10-16T14:04:31;16.50;99.90
65404;DHT22;52014;52.088;5.096;2022-10-16T14:06:57;16.50;99.90
65404;DHT22;52014;52.088;5.096;2022-10-16T14:09:26;16.50;99.90
65404;DHT22;52014;52.088;5.096;2022-10-16T14:11:53;16.60;99.90
65404;DHT22;52014;52.088;5.096;2022-10-16T14:14:19;16.60;99.90
65404;DHT22;52014;52.088;5.096;2022-10-16T14:16:45;16.60;99.90
65404;DHT22;52014;52.088;5.096;2022-10-16T14:19:16;16.50;99.90
65404;DHT22;52014;52.088;5.096;2022-10-16T14:21:43;16.50;99.90
65404;DHT22;52014;52.088;5.096;2022-10-16T14:24:12;16.50;99.90
65404;DHT22;52014;52.088;5.096;2022-10-16T14:26:41;16.50;99.90
65404;DHT22;52014;52.088;5.096;2022-10-16T14:29:17;16.50;99.90
65404;DHT22;52014;52.088;5.096;2022-10-16T14:31:53;16.50;99.90
65404;DHT22;52014;52.088;5.096;2022-10-16T14:34:26;16.40;99.90
65404;DHT22;52014;52.088;5.096;2022-10-16T14:36:53;16.40;99.90
65404;DHT22;52014;52.088;5.096;2022-10-16T14:39:22;16.40;99.90
65404;DHT22;52014;52.088;5.096;2022-10-16T14:41:49;16.40;99.90
65404;DHT22;52014;52.088;5.096;2022-10-16T14:44:15;16.40;99.90
65404;DHT22;52014;52.088;5.096;2022-10-16T14:46:43;16.40;99.90
65404;DHT22;52014;52.088;5.096;2022-10-16T14:51:34;16.30;99.90
65404;DHT22;52014;52.088;5.096;2022-10-16T14:53:59;16.30;99.90
65404;DHT22;52014;52.088;5.096;2022-10-16T14:56:43;16.30;99.90
65404;DHT22;52014;52.088;5.096;2022-10-16T14:59:12;16.30;99.90
65404;DHT22;52014;52.088;5.096;2022-10-16T15:01:39;16.30;99.90
65404;DHT22;52014;52.088;5.096;2022-10-16T15:04:07;16.20;99.90
65404;DHT22;52014;52.088;5.096;2022-10-16T15:06:32;16.20;99.90
65404;DHT22;52014;52.088;5.096;2022-10-16T15:08:58;16.10;99.90
65404;DHT22;52014;52.088;5.096;2022-10-16T15:11:23;16.10;99.90
65404;DHT22;52014;52.088;5.096;2022-10-16T15:13:48;16.10;99.90
65404;DHT22;52014;52.088;5.096;2022-10-16T15:16:15;16.10;99.90
65404;DHT22;52014;52.088;5.096;2022-10-16T15:18:41;16.10;99.90
65404;DHT22;52014;52.088;5.096;2022-10-16T15:21:06;16.10;99.90
65404;DHT22;52014;52.088;5.096;2022-10-16T15:23:32;15.90;99.90
65404;DHT22;52014;52.088;5.096;2022-10-16T15:25:57;15.90;99.90
65404;DHT22;52014;52.088;5.096;2022-10-16T15:28:23;15.80;99.90
65404;DHT22;52014;52.088;5.096;2022-10-16T15:30:50;15.80;99.90
65404;DHT22;52014;52.088;5.096;2022-10-16T15:33:17;15.70;99.90
65404;DHT22;52014;52.088;5.096;2022-10-16T15:35:42;15.70;99.90
65404;DHT22;52014;52.088;5.096;2022-10-16T15:38:11;15.70;99.90
65404;DHT22;52014;52.088;5.096;2022-10-16T15:40:38;15.70;99.90
65404;DHT22;52014;52.088;5.096;2022-10-16T15:43:03;15.60;99.90
65404;DHT22;52014;52.088;5.096;2022-10-16T15:45:28;15.60;99.90
65404;DHT22;52014;52.088;5.096;2022-10-16T15:47:54;15.60;99.90
65404;DHT22;52014;52.088;5.096;2022-10-16T15:50:19;15.60;99.90
65404;DHT22;52014;52.088;5.096;2022-10-16T15:52:45;15.50;99.90
65404;DHT22;52014;52.088;5.096;2022-10-16T15:55:11;15.50;99.90
65404;DHT22;52014;52.088;5.096;2022-10-16T15:57:38;15.50;99.90
65404;DHT22;52014;52.088;5.096;2022-10-16T16:00:06;15.40;99.90
65404;DHT22;52014;52.088;5.096;2022-10-16T16:02:32;15.40;99.90
65404;DHT22;52014;52.088;5.096;2022-10-16T16:04:58;15.40;99.90
65404;DHT22;52014;52.088;5.096;2022-10-16T16:07:24;15.30;99.90
65404;DHT22;52014;52.088;5.096;2022-10-16T16:09:49;15.30;99.90
65404;DHT22;52014;52.088;5.096;2022-10-16T16:12:15;15.30;99.90
65404;DHT22;52014;52.088;5.096;2022-10-16T16:14:40;15.30;99.90
65404;DHT22;52014;52.088;5.096;2022-10-16T16:17:06;15.30;99.90
65404;DHT22;52014;52.088;5.096;2022-10-16T16:19:32;15.30;99.90
65404;DHT22;52014;52.088;5.096;2022-10-16T16:21:58;15.30;99.90
65404;DHT22;52014;52.088;5.096;2022-10-16T16:24:23;15.20;99.90
65404;DHT22;52014;52.088;5.096;2022-10-16T16:26:49;15.20;99.90
65404;DHT22;52014;52.088;5.096;2022-10-16T16:29:14;15.10;99.90
65404;DHT22;52014;52.088;5.096;2022-10-16T16:31:41;15.10;99.90
65404;DHT22;52014;52.088;5.096;2022-10-16T16:34:06;15.20;99.90
65404;DHT22;52014;52.088;5.096;2022-10-16T16:36:32;15.20;99.90
65404;DHT22;52014;52.088;5.096;2022-10-16T16:38:57;15.20;99.90
65404;DHT22;52014;52.088;5.096;2022-10-16T16:41:24;15.10;99.90
65404;DHT22;52014;52.088;5.096;2022-10-16T16:43:51;15.00;99.90
65404;DHT22;52014;52.088;5.096;2022-10-16T16:46:16;14.90;99.90
65404;DHT22;52014;52.088;5.096;2022-10-16T16:48:42;14.90;99.90
65404;DHT22;52014;52.088;5.096;2022-10-16T16:51:12;14.80;99.90
65404;DHT22;52014;52.088;5.096;2022-10-16T16:53:44;14.80;99.90
65404;DHT22;52014;52.088;5.096;2022-10-16T16:56:10;14.80;99.90
65404;DHT22;52014;52.088;5.096;2022-10-16T16:58:36;14.80;99.90
65404;DHT22;52014;52.088;5.096;2022-10-16T17:01:01;14.80;99.90
65404;DHT22;52014;52.088;5.096;2022-10-16T17:03:27;14.80;99.90
65404;DHT22;52014;52.088;5.096;2022-10-16T17:06:00;14.80;99.90
65404;DHT22;52014;52.088;5.096;2022-10-16T17:08:26;14.70;99.90
65404;DHT22;52014;52.088;5.096;2022-10-16T17:10:52;14.70;99.90
65404;DHT22;52014;52.088;5.096;2022-10-16T17:13:27;14.70;99.90